sensor_id;sensor_type;location;lat;lon;timestamp;temperature;humidity
61351;DHT22;47119;49.130;9.218;2023-06-26T09:47:07;21.15;69.53
61351;DHT22;47119;49.130;9.218;2023-06-26T09:49:35;21.18;69.13
61351;DHT22;47119;49.130;9.218;2023-06-26T09:52:02;21.14;70.04
61351;DHT22;47119;49.130;9.218;2023-06-26T09:54:30;21.18;69.58
61351;DHT22;47119;49.130;9.218;2023-06-26T09:57:07;21.19;69.61
61351;DHT22;47119;49.130;9.218;2023-06-26T09:59:35;21.14;69.79
61351;DHT22;47119;49.130;9.218;2023-06-26T10:02:05;21.19;70.67
61351;DHT22;47119;49.130;9.218;2023-06-26T10:04:34;21.22;68.72
61351;DHT22;47119;49.130;9.218;2023-06-26T10:07:05;21.19;69.39
61351;DHT22;47119;49.130;9.218;2023-06-26T10:09:37;21.21;69.70
61351;DHT22;47119;49.130;9.218;2023-06-26T10:12:11;21.24;68.99
61351;DHT22;47119;49.130;9.218;2023-06-26T10:14:45;21.24;70.04
61351;DHT22;47119;49.130;9.218;2023-06-26T10:17:16;21.31;68.83
61351;DHT22;47119;49.130;9.218;2023-06-26T10:19:47;21.32;69.06
61351;DHT22;47119;49.130;9.218;2023-06-26T10:22:20;21.31;68.89
61351;DHT22;47119;49.130;9.218;2023-06-26T10:24:53;21.32;69.11
61351;DHT22;47119;49.130;9.218;2023-06-26T10:27:25;21.26;69.44
61351;DHT22;47119;49.130;9.218;2023-06-26T10:29:56;21.28;69.71
61351;DHT22;47119;49.130;9.218;2023-06-26T10:32:29;21.31;69.89
61351;DHT22;47119;49.130;9.218;2023-06-26T10:34:57;21.32;69.70
61351;DHT22;47119;49.130;9.218;2023-06-26T10:37:42;21.35;69.64
61351;DHT22;47119;49.130;9.218;2023-06-26T10:40:10;21.38;69.35
61351;DHT22;47119;49.130;9.218;2023-06-26T10:42:39;21.36;69.55
61351;DHT22;47119;49.130;9.218;2023-06-26T10:45:13;21.36;69.83
61351;DHT22;47119;49.130;9.218;2023-06-26T10:47:47;21.32;70.15
61351;DHT22;47119;49.130;9.218;2023-06-26T10:50:23;21.34;69.56
61351;DHT22;47119;49.130;9.218;2023-06-26T10:53:13;21.31;70.22
61351;DHT22;47119;49.130;9.218;2023-06-26T10:56:00;21.36;69.87
61351;DHT22;47119;49.130;9.218;2023-06-26T10:58:33;21.34;70.01
61351;DHT22;47119;49.130;9.218;2023-06-26T11:01:14;21.35;69.87
61351;DHT22;47119;49.130;9.218;2023-06-26T11:03:49;21.38;69.71
61351;DHT22;47119;49.130;9.218;2023-06-26T11:06:28;21.34;70.19
61351;DHT22;47119;49.130;9.218;2023-06-26T11:09:01;21.35;70.21
61351;DHT22;47119;49.130;9.218;2023-06-26T11:16:34;21.32;70.11
61351;DHT22;47119;49.130;9.218;2023-06-26T14:24:49;21.43;70.68
61351;DHT22;47119;49.130;9.218;2023-06-26T14:27:23;21.47;69.83
61351;DHT22;47119;49.130;9.218;2023-06-26T14:29:50;21.47;69.29
61351;DHT22;47119;49.130;9.218;2023-06-26T14:32:18;21.49;69.54
61351;DHT22;47119;49.130;9.218;2023-06-26T14:34:45;21.52;68.23
61351;DHT22;47119;49.130;9.218;2023-06-26T14:37:12;21.53;68.52
61351;DHT22;47119;49.130;9.218;2023-06-26T14:39:39;21.50;70.10
61351;DHT22;47119;49.130;9.218;2023-06-26T14:42:07;21.52;69.18
61351;DHT22;47119;49.130;9.218;2023-06-26T14:44:36;21.52;68.42
61351;DHT22;47119;49.130;9.218;2023-06-26T14:47:03;21.53;69.14
61351;DHT22;47119;49.130;9.218;2023-06-26T14:49:31;21.55;68.94
61351;DHT22;47119;49.130;9.218;2023-06-26T14:51:58;21.53;69.06
61351;DHT22;47119;49.130;9.218;2023-06-26T14:54:25;21.53;68.78
61351;DHT22;47119;49.130;9.218;2023-06-26T14:56:53;21.52;69.11
61351;DHT22;47119;49.130;9.218;2023-06-26T14:59:21;21.52;68.96
61351;DHT22;47119;49.130;9.218;2023-06-26T15:01:48;21.49;68.91
61351;DHT22;47119;49.130;9.218;2023-06-26T15:04:15;21.50;68.93
61351;DHT22;47119;49.130;9.218;2023-06-26T15:06:43;21.55;68.53
61351;DHT22;47119;49.130;9.218;2023-06-26T15:09:10;21.47;69.20
61351;DHT22;47119;49.130;9.218;2023-06-26T15:11:37;21.56;68.16
61351;DHT22;47119;49.130;9.218;2023-06-26T15:14:04;21.56;68.53
61351;DHT22;47119;49.130;9.218;2023-06-26T15:16:33;21.50;68.09
61351;DHT22;47119;49.130;9.218;2023-06-26T15:19:00;21.47;68.20
61351;DHT22;47119;49.130;9.218;2023-06-26T15:21:43;21.49;67.85
61351;DHT22;47119;49.130;9.218;2023-06-26T15:24:13;21.43;70.18
61351;DHT22;47119;49.130;9.218;2023-06-26T15:26:40;21.47;69.17
61351;DHT22;47119;49.130;9.218;2023-06-26T15:29:07;21.52;67.53
61351;DHT22;47119;49.130;9.218;2023-06-26T15:31:36;21.50;67.68
61351;DHT22;47119;49.130;9.218;2023-06-26T15:34:03;21.49;68.31
61351;DHT22;47119;49.130;9.218;2023-06-26T15:36:30;21.55;66.24
61351;DHT22;47119;49.130;9.218;2023-06-26T15:38:58;21.53;67.53
61351;DHT22;47119;49.130;9.218;2023-06-26T15:41:25;21.49;67.36
61351;DHT22;47119;49.130;9.218;2023-06-26T15:43:52;21.49;67.15
61351;DHT22;47119;49.130;9.218;2023-06-26T15:46:19;21.45;67.75
61351;DHT22;47119;49.130;9.218;2023-06-26T15:48:48;21.47;67.22
61351;DHT22;47119;49.130;9.218;2023-06-26T15:51:15;21.46;67.10
61351;DHT22;47119;49.130;9.218;2023-06-26T15:53:44;21.45;68.13
61351;DHT22;47119;49.130;9.218;2023-06-26T15:56:12;21.45;67.61
61351;DHT22;47119;49.130;9.218;2023-06-26T15:58:39;21.42;68.79
61351;DHT22;47119;49.130;9.218;2023-06-26T16:01:11;21.41;68.75
61351;DHT22;47119;49.130;9.218;2023-06-26T16:03:39;21.47;67.47
61351;DHT22;47119;49.130;9.218;2023-06-26T16:06:08;21.49;66.57
61351;DHT22;47119;49.130;9.218;2023-06-26T16:08:38;21.45;68.00
61351;DHT22;47119;49.130;9.218;2023-06-26T16:11:06;21.39;68.09
61351;DHT22;47119;49.130;9.218;2023-06-26T16:13:33;21.45;66.01
61351;DHT22;47119;49.130;9.218;2023-06-26T16:16:01;21.41;66.58
61351;DHT22;47119;49.130;9.218;2023-06-26T16:18:28;21.42;65.29
61351;DHT22;47119;49.130;9.218;2023-06-26T16:20:58;21.43;64.61
61351;DHT22;47119;49.130;9.218;2023-06-26T16:23:43;21.42;65.16
61351;DHT22;47119;49.130;9.218;2023-06-26T16:26:10;21.39;64.79
61351;DHT22;47119;49.130;9.218;2023-06-26T16:28:42;21.38;64.51
61351;DHT22;47119;49.130;9.218;2023-06-26T16:31:09;21.36;64.30
61351;DHT22;47119;49.130;9.218;2023-06-26T16:33:37;21.36;65.71
61351;DHT22;47119;49.130;9.218;2023-06-26T16:36:04;21.35;66.41
61351;DHT22;47119;49.130;9.218;2023-06-26T16:38:33;21.38;62.69
61351;DHT22;47119;49.130;9.218;2023-06-26T16:41:04;21.35;64.38
61351;DHT22;47119;49.130;9.218;2023-06-26T16:43:31;21.35;62.86
61351;DHT22;47119;49.130;9.218;2023-06-26T16:45:59;21.32;63.95
61351;DHT22;47119;49.130;9.218;2023-06-26T16:48:27;21.35;64.11
61351;DHT22;47119;49.130;9.218;2023-06-26T16:50:54;21.31;60.62
61351;DHT22;47119;49.130;9.218;2023-06-26T16:53:21;21.29;63.49
61351;DHT22;47119;49.130;9.218;2023-06-26T16:55:49;21.31;62.48
61351;DHT22;47119;49.130;9.218;2023-06-26T16:58:21;21.28;62.48
61351;DHT22;47119;49.130;9.218;2023-06-26T17:00:50;21.34;62.55
61351;DHT22;47119;49.130;9.218;2023-06-26T17:03:19;21.31;61.51
61351;DHT22;47119;49.130;9.218;2023-06-26T17:05:47;21.26;61.59
61351;DHT22;47119;49.130;9.218;2023-06-26T17:08:38;21.28;60.51
61351;DHT22;47119;49.130;9.218;2023-06-26T17:11:05;21.25;60.29
61351;DHT22;47119;49.130;9.218;2023-06-26T17:14:03;21.31;61.23
61351;DHT22;47119;49.130;9.218;2023-06-26T17:16:30;21.26;61.58
61351;DHT22;47119;49.130;9.218;2023-06-26T17:18:57;21.26;59.99
61351;DHT22;47119;49.130;9.218;2023-06-26T17:21:25;21.25;61.38
61351;DHT22;47119;49.130;9.218;2023-06-26T17:23:59;21.26;63.27
61351;DHT22;47119;49.130;9.218;2023-06-26T17:26:34;21.25;62.93
61351;DHT22;47119;49.130;9.218;2023-06-26T17:29:04;21.26;61.92
61351;DHT22;47119;49.130;9.218;2023-06-26T17:31:32;21.26;60.52
61351;DHT22;47119;49.130;9.218;2023-06-26T17:34:02;21.25;62.59
61351;DHT22;47119;49.130;9.218;2023-06-26T17:36:32;21.28;62.87
61351;DHT22;47119;49.130;9.218;2023-06-26T17:38:59;21.22;62.53
61351;DHT22;47119;49.130;9.218;2023-06-26T17:41:27;21.22;62.47
61351;DHT22;47119;49.130;9.218;2023-06-26T17:43:57;21.21;61.51
61351;DHT22;47119;49.130;9.218;2023-06-26T17:46:44;21.22;62.01
61351;DHT22;47119;49.130;9.218;2023-06-26T17:49:15;21.21;62.04
61351;DHT22;47119;49.130;9.218;2023-06-26T17:51:47;21.21;60.46
61351;DHT22;47119;49.130;9.218;2023-06-26T17:54:17;21.24;61.07
61351;DHT22;47119;49.130;9.218;2023-06-26T17:56:44;21.24;60.43
61351;DHT22;47119;49.130;9.218;2023-06-26T17:59:12;21.24;60.93
61351;DHT22;47119;49.130;9.218;2023-06-26T18:01:40;21.22;61.29
61351;DHT22;47119;49.130;9.218;2023-06-26T18:04:09;21.22;61.18
61351;DHT22;47119;49.130;9.218;2023-06-26T18:06:36;21.24;60.86
61351;DHT22;47119;49.130;9.218;2023-06-26T18:09:06;21.24;60.64
61351;DHT22;47119;49.130;9.218;2023-06-26T18:11:34;21.26;60.76
61351;DHT22;47119;49.130;9.218;2023-06-26T18:14:02;21.24;60.63
61351;DHT22;47119;49.130;9.218;2023-06-26T18:16:30;21.24;60.92
61351;DHT22;47119;49.130;9.218;2023-06-26T18:18:57;21.22;60.70
61351;DHT22;47119;49.130;9.218;2023-06-26T18:21:26;21.21;61.02
61351;DHT22;47119;49.130;9.218;2023-06-26T18:23:54;21.25;61.18
61351;DHT22;47119;49.130;9.218;2023-06-26T18:26:26;21.22;61.58
61351;DHT22;47119;49.130;9.218;2023-06-26T18:28:53;21.22;61.98
61351;DHT22;47119;49.130;9.218;2023-06-26T18:31:21;21.22;61.54
61351;DHT22;47119;49.130;9.218;2023-06-26T18:33:48;21.22;61.51
61351;DHT22;47119;49.130;9.218;2023-06-26T18:36:15;21.22;63.46
61351;DHT22;47119;49.130;9.218;2023-06-26T18:38:44;21.26;60.66
61351;DHT22;47119;49.130;9.218;2023-06-26T18:41:12;21.24;61.18
61351;DHT22;47119;49.130;9.218;2023-06-26T18:43:40;21.24;62.63
61351;DHT22;47119;49.130;9.218;2023-06-26T18:46:08;21.22;62.15
61351;DHT22;47119;49.130;9.218;2023-06-26T18:48:36;21.19;61.80
61351;DHT22;47119;49.130;9.218;2023-06-26T18:51:03;21.22;61.72
61351;DHT22;47119;49.130;9.218;2023-06-26T18:53:35;21.22;62.05
61351;DHT22;47119;49.130;9.218;2023-06-26T18:56:07;21.24;60.29
61351;DHT22;47119;49.130;9.218;2023-06-26T18:58:51;21.24;60.96
61351;DHT22;47119;49.130;9.218;2023-06-26T19:01:18;21.24;61.50
61351;DHT22;47119;49.130;9.218;2023-06-26T19:03:46;21.19;61.81
61351;DHT22;47119;49.130;9.218;2023-06-26T19:06:29;21.18;62.67
61351;DHT22;47119;49.130;9.218;2023-06-26T19:09:52;21.16;62.77
61351;DHT22;47119;49.130;9.218;2023-06-26T19:12:23;21.19;61.73
61351;DHT22;47119;49.130;9.218;2023-06-26T19:14:53;21.18;61.85
61351;DHT22;47119;49.130;9.218;2023-06-26T19:17:20;21.19;61.97
61351;DHT22;47119;49.130;9.218;2023-06-26T19:19:48;21.19;62.03
61351;DHT22;47119;49.130;9.218;2023-06-26T19:22:15;21.19;61.96
61351;DHT22;47119;49.130;9.218;2023-06-26T19:24:42;21.19;62.01
61351;DHT22;47119;49.130;9.218;2023-06-26T19:27:09;21.19;61.99
61351;DHT22;47119;49.130;9.218;2023-06-26T19:29:37;21.21;60.74
61351;DHT22;47119;49.130;9.218;2023-06-26T19:32:09;21.16;62.79
61351;DHT22;47119;49.130;9.218;2023-06-26T19:34:36;21.19;62.12
61351;DHT22;47119;49.130;9.218;2023-06-26T19:37:03;21.18;62.98
61351;DHT22;47119;49.130;9.218;2023-06-26T19:39:31;21.21;61.41
61351;DHT22;47119;49.130;9.218;2023-06-26T19:41:58;21.19;61.22
61351;DHT22;47119;49.130;9.218;2023-06-26T19:44:25;21.19;61.33
61351;DHT22;47119;49.130;9.218;2023-06-26T19:46:54;21.18;61.88
61351;DHT22;47119;49.130;9.218;2023-06-26T19:49:21;21.19;61.47
61351;DHT22;47119;49.130;9.218;2023-06-26T19:51:49;21.21;61.42
61351;DHT22;47119;49.130;9.218;2023-06-26T19:54:16;21.18;61.05
61351;DHT22;47119;49.130;9.218;2023-06-26T19:56:48;21.18;61.51
61351;DHT22;47119;49.130;9.218;2023-06-26T19:59:18;21.16;61.86
61351;DHT22;47119;49.130;9.218;2023-06-26T20:01:45;21.18;60.77
61351;DHT22;47119;49.130;9.218;2023-06-26T20:04:15;21.18;60.81
61351;DHT22;47119;49.130;9.218;2023-06-26T20:06:42;21.15;62.12
61351;DHT22;47119;49.130;9.218;2023-06-26T20:09:10;21.21;59.72
61351;DHT22;47119;49.130;9.218;2023-06-26T20:11:37;21.19;60.71
61351;DHT22;47119;49.130;9.218;2023-06-26T20:14:04;21.19;61.13
61351;DHT22;47119;49.130;9.218;2023-06-26T20:16:32;21.15;61.42
61351;DHT22;47119;49.130;9.218;2023-06-26T20:18:59;21.15;61.04
61351;DHT22;47119;49.130;9.218;2023-06-26T20:21:27;21.14;61.13
61351;DHT22;47119;49.130;9.218;2023-06-26T20:23:56;21.16;60.63
61351;DHT22;47119;49.130;9.218;2023-06-26T20:26:23;21.19;61.01
61351;DHT22;47119;49.130;9.218;2023-06-26T20:28:50;21.16;61.69
61351;DHT22;47119;49.130;9.218;2023-06-26T20:31:17;21.15;62.46
61351;DHT22;47119;49.130;9.218;2023-06-26T20:33:45;21.15;62.60
61351;DHT22;47119;49.130;9.218;2023-06-26T20:36:15;21.14;62.24
61351;DHT22;47119;49.130;9.218;2023-06-26T20:38:44;21.16;62.36
61351;DHT22;47119;49.130;9.218;2023-06-26T20:41:11;21.15;61.90
61351;DHT22;47119;49.130;9.218;2023-06-26T20:43:39;21.12;62.44
61351;DHT22;47119;49.130;9.218;2023-06-26T20:46:30;21.16;62.33
61351;DHT22;47119;49.130;9.218;2023-06-26T20:48:58;21.16;61.77
61351;DHT22;47119;49.130;9.218;2023-06-26T20:51:29;21.15;62.50
61351;DHT22;47119;49.130;9.218;2023-06-26T20:53:58;21.15;63.10
61351;DHT22;47119;49.130;9.218;2023-06-26T20:56:26;21.16;62.16
61351;DHT22;47119;49.130;9.218;2023-06-26T20:58:53;21.14;62.51
61351;DHT22;47119;49.130;9.218;2023-06-26T21:01:23;21.16;61.74
61351;DHT22;47119;49.130;9.218;2023-06-26T21:03:53;21.18;62.32
61351;DHT22;47119;49.130;9.218;2023-06-26T21:06:20;21.19;62.37
61351;DHT22;47119;49.130;9.218;2023-06-26T21:08:47;21.18;61.95
61351;DHT22;47119;49.130;9.218;2023-06-26T21:11:16;21.16;62.16
61351;DHT22;47119;49.130;9.218;2023-06-26T21:13:46;21.16;62.37
61351;DHT22;47119;49.130;9.218;2023-06-26T21:16:13;21.16;62.49
61351;DHT22;47119;49.130;9.218;2023-06-26T21:18:40;21.19;62.68
61351;DHT22;47119;49.130;9.218;2023-06-26T21:21:13;21.18;61.98
61351;DHT22;47119;49.130;9.218;2023-06-26T21:23:52;21.16;62.93
61351;DHT22;47119;49.130;9.218;2023-06-26T21:26:28;21.19;62.60
61351;DHT22;47119;49.130;9.218;2023-06-26T21:33:08;21.21;61.26
